sensor_id;sensor_type;location;lat;lon;timestamp;temperature;humidity
73688;SHT30;62257;48.376;-4.378;2022-10-16T00:00:15;14.29;81.54
73688;SHT30;62257;48.376;-4.378;2022-10-16T00:02:40;14.22;81.56
73688;SHT30;62257;48.376;-4.378;2022-10-16T00:05:06;14.21;81.60
73688;SHT30;62257;48.376;-4.378;2022-10-16T00:07:31;14.13;81.82
73688;SHT30;62257;48.376;-4.378;2022-10-16T00:09:57;14.04;81.89
73688;SHT30;62257;48.376;-4.378;2022-10-16T00:12:22;14.00;82.13
73688;SHT30;62257;48.376;-4.378;2022-10-16T00:14:48;13.95;82.06
73688;SHT30;62257;48.376;-4.378;2022-10-16T00:17:13;13.95;82.15
73688;SHT30;62257;48.376;-4.378;2022-10-16T00:19:38;13.91;82.11
73688;SHT30;62257;48.376;-4.378;2022-10-16T00:22:04;13.88;82.37
73688;SHT30;62257;48.376;-4.378;2022-10-16T00:24:29;13.87;82.42
73688;SHT30;62257;48.376;-4.378;2022-10-16T00:26:55;13.88;82.32
73688;SHT30;62257;48.376;-4.378;2022-10-16T00:29:20;13.87;82.33
73688;SHT30;62257;48.376;-4.378;2022-10-16T00:31:45;13.88;82.49
73688;SHT30;62257;48.376;-4.378;2022-10-16T00:34:11;13.88;82.52
73688;SHT30;62257;48.376;-4.378;2022-10-16T00:36:36;13.93;82.42
73688;SHT30;62257;48.376;-4.378;2022-10-16T00:39:02;13.95;82.52
73688;SHT30;62257;48.376;-4.378;2022-10-16T00:41:28;13.93;82.62
73688;SHT30;62257;48.376;-4.378;2022-10-16T00:43:57;13.94;82.39
73688;SHT30;62257;48.376;-4.378;2022-10-16T00:46:38;13.91;82.40
73688;SHT30;62257;48.376;-4.378;2022-10-16T00:49:07;13.90;82.41
73688;SHT30;62257;48.376;-4.378;2022-10-16T00:51:36;13.86;82.69
73688;SHT30;62257;48.376;-4.378;2022-10-16T00:54:06;13.84;82.86
73688;SHT30;62257;48.376;-4.378;2022-10-16T00:56:33;13.81;83.11
73688;SHT30;62257;48.376;-4.378;2022-10-16T00:59:04;13.80;83.00
73688;SHT30;62257;48.376;-4.378;2022-10-16T01:01:33;13.80;83.39
73688;SHT30;62257;48.376;-4.378;2022-10-16T01:03:58;13.77;83.51
73688;SHT30;62257;48.376;-4.378;2022-10-16T01:06:35;13.76;83.43
73688;SHT30;62257;48.376;-4.378;2022-10-16T01:09:23;13.73;83.19
73688;SHT30;62257;48.376;-4.378;2022-10-16T01:14:40;13.69;83.72
73688;SHT30;62257;48.376;-4.378;2022-10-16T01:17:17;13.67;83.61
73688;SHT30;62257;48.376;-4.378;2022-10-16T01:22:25;13.63;83.84
73688;SHT30;62257;48.376;-4.378;2022-10-16T01:24:56;13.60;83.87
73688;SHT30;62257;48.376;-4.378;2022-10-16T01:27:30;13.59;83.87
73688;SHT30;62257;48.376;-4.378;2022-10-16T01:30:05;13.57;84.15
73688;SHT30;62257;48.376;-4.378;2022-10-16T01:35:18;13.55;83.95
73688;SHT30;62257;48.376;-4.378;2022-10-16T01:38:06;13.50;84.06
73688;SHT30;62257;48.376;-4.378;2022-10-16T01:40:34;13.49;84.12
73688;SHT30;62257;48.376;-4.378;2022-10-16T01:43:28;13.48;84.12
73688;SHT30;62257;48.376;-4.378;2022-10-16T01:45:57;13.48;84.16
73688;SHT30;62257;48.376;-4.378;2022-10-16T01:48:24;13.45;84.32
73688;SHT30;62257;48.376;-4.378;2022-10-16T01:50:55;13.40;84.64
73688;SHT30;62257;48.376;-4.378;2022-10-16T01:53:22;13.42;84.52
73688;SHT30;62257;48.376;-4.378;2022-10-16T01:55:49;13.36;84.62
73688;SHT30;62257;48.376;-4.378;2022-10-16T01:58:15;13.38;84.73
73688;SHT30;62257;48.376;-4.378;2022-10-16T02:00:43;13.36;84.42
73688;SHT30;62257;48.376;-4.378;2022-10-16T02:03:11;13.35;84.48
73688;SHT30;62257;48.376;-4.378;2022-10-16T02:05:47;13.34;84.17
73688;SHT30;62257;48.376;-4.378;2022-10-16T02:08:15;13.34;84.46
73688;SHT30;62257;48.376;-4.378;2022-10-16T02:10:40;13.30;84.42
73688;SHT30;62257;48.376;-4.378;2022-10-16T02:13:10;13.30;84.58
73688;SHT30;62257;48.376;-4.378;2022-10-16T02:15:37;13.28;84.62
73688;SHT30;62257;48.376;-4.378;2022-10-16T02:18:05;13.28;84.61
73688;SHT30;62257;48.376;-4.378;2022-10-16T02:20:37;13.26;84.55
73688;SHT30;62257;48.376;-4.378;2022-10-16T02:23:11;13.26;84.54
73688;SHT30;62257;48.376;-4.378;2022-10-16T02:25:40;13.25;84.37
73688;SHT30;62257;48.376;-4.378;2022-10-16T02:28:33;13.23;84.29
73688;SHT30;62257;48.376;-4.378;2022-10-16T02:31:07;13.25;84.19
73688;SHT30;62257;48.376;-4.378;2022-10-16T02:33:34;13.23;84.23
73688;SHT30;62257;48.376;-4.378;2022-10-16T02:36:01;13.23;84.21
73688;SHT30;62257;48.376;-4.378;2022-10-16T02:38:27;13.22;84.18
73688;SHT30;62257;48.376;-4.378;2022-10-16T02:40:55;13.22;84.17
73688;SHT30;62257;48.376;-4.378;2022-10-16T02:43:21;13.22;84.18
73688;SHT30;62257;48.376;-4.378;2022-10-16T02:45:46;13.22;84.29
73688;SHT30;62257;48.376;-4.378;2022-10-16T02:48:11;13.19;84.56
73688;SHT30;62257;48.376;-4.378;2022-10-16T02:50:37;13.16;84.76
73688;SHT30;62257;48.376;-4.378;2022-10-16T02:53:02;13.19;84.78
73688;SHT30;62257;48.376;-4.378;2022-10-16T02:55:28;13.18;84.70
73688;SHT30;62257;48.376;-4.378;2022-10-16T02:57:54;13.19;84.76
73688;SHT30;62257;48.376;-4.378;2022-10-16T03:00:19;13.19;84.68
73688;SHT30;62257;48.376;-4.378;2022-10-16T03:02:45;13.21;84.57
73688;SHT30;62257;48.376;-4.378;2022-10-16T03:05:11;13.19;84.51
73688;SHT30;62257;48.376;-4.378;2022-10-16T03:07:37;13.18;84.56
73688;SHT30;62257;48.376;-4.378;2022-10-16T03:10:03;13.15;84.45
73688;SHT30;62257;48.376;-4.378;2022-10-16T03:12:28;13.18;84.51
73688;SHT30;62257;48.376;-4.378;2022-10-16T03:14:55;13.18;84.52
73688;SHT30;62257;48.376;-4.378;2022-10-16T03:17:21;13.18;84.63
73688;SHT30;62257;48.376;-4.378;2022-10-16T03:19:47;13.16;84.67
73688;SHT30;62257;48.376;-4.378;2022-10-16T03:22:12;13.18;84.72
73688;SHT30;62257;48.376;-4.378;2022-10-16T03:24:37;13.16;84.61
73688;SHT30;62257;48.376;-4.378;2022-10-16T03:27:03;13.16;84.67
73688;SHT30;62257;48.376;-4.378;2022-10-16T03:29:28;13.18;84.72
73688;SHT30;62257;48.376;-4.378;2022-10-16T03:31:55;13.18;84.70
73688;SHT30;62257;48.376;-4.378;2022-10-16T03:34:20;13.22;84.76
73688;SHT30;62257;48.376;-4.378;2022-10-16T03:36:46;13.19;84.80
73688;SHT30;62257;48.376;-4.378;2022-10-16T03:39:11;13.19;84.68
73688;SHT30;62257;48.376;-4.378;2022-10-16T03:41:37;13.22;84.60
73688;SHT30;62257;48.376;-4.378;2022-10-16T03:44:02;13.19;84.58
73688;SHT30;62257;48.376;-4.378;2022-10-16T03:46:27;13.21;84.65
73688;SHT30;62257;48.376;-4.378;2022-10-16T03:48:53;13.21;84.59
73688;SHT30;62257;48.376;-4.378;2022-10-16T03:51:18;13.18;84.57
73688;SHT30;62257;48.376;-4.378;2022-10-16T03:53:44;13.16;84.56
73688;SHT30;62257;48.376;-4.378;2022-10-16T03:56:09;13.19;84.47
73688;SHT30;62257;48.376;-4.378;2022-10-16T03:58:34;13.16;84.44
73688;SHT30;62257;48.376;-4.378;2022-10-16T04:01:00;13.15;84.49
73688;SHT30;62257;48.376;-4.378;2022-10-16T04:03:25;13.15;84.42
73688;SHT30;62257;48.376;-4.378;2022-10-16T04:05:51;13.15;84.42
73688;SHT30;62257;48.376;-4.378;2022-10-16T04:08:16;13.14;84.41
73688;SHT30;62257;48.376;-4.378;2022-10-16T04:10:44;13.12;84.47
73688;SHT30;62257;48.376;-4.378;2022-10-16T04:13:11;13.11;84.55
73688;SHT30;62257;48.376;-4.378;2022-10-16T04:15:36;13.11;84.52
73688;SHT30;62257;48.376;-4.378;2022-10-16T04:18:01;13.10;84.51
73688;SHT30;62257;48.376;-4.378;2022-10-16T04:20:27;13.08;84.49
73688;SHT30;62257;48.376;-4.378;2022-10-16T04:22:52;13.07;84.43
73688;SHT30;62257;48.376;-4.378;2022-10-16T04:25:18;13.05;84.50
73688;SHT30;62257;48.376;-4.378;2022-10-16T04:27:43;13.07;84.37
73688;SHT30;62257;48.376;-4.378;2022-10-16T04:30:09;13.01;84.46
73688;SHT30;62257;48.376;-4.378;2022-10-16T04:32:34;13.04;84.54
73688;SHT30;62257;48.376;-4.378;2022-10-16T04:35:00;13.02;84.60
73688;SHT30;62257;48.376;-4.378;2022-10-16T04:37:26;13.02;84.53
73688;SHT30;62257;48.376;-4.378;2022-10-16T04:39:53;13.02;84.52
73688;SHT30;62257;48.376;-4.378;2022-10-16T04:42:19;13.02;84.53
73688;SHT30;62257;48.376;-4.378;2022-10-16T04:44:44;13.01;84.49
73688;SHT30;62257;48.376;-4.378;2022-10-16T04:47:09;12.98;84.44
73688;SHT30;62257;48.376;-4.378;2022-10-16T04:49:35;13.00;84.39
73688;SHT30;62257;48.376;-4.378;2022-10-16T04:52:00;12.97;84.35
73688;SHT30;62257;48.376;-4.378;2022-10-16T04:54:26;12.98;84.34
73688;SHT30;62257;48.376;-4.378;2022-10-16T04:56:51;12.98;84.42
73688;SHT30;62257;48.376;-4.378;2022-10-16T04:59:18;12.95;84.45
73688;SHT30;62257;48.376;-4.378;2022-10-16T05:01:44;12.97;84.47
73688;SHT30;62257;48.376;-4.378;2022-10-16T05:04:10;12.95;84.47
73688;SHT30;62257;48.376;-4.378;2022-10-16T05:06:36;13.00;84.46
73688;SHT30;62257;48.376;-4.378;2022-10-16T05:09:04;12.98;84.48
73688;SHT30;62257;48.376;-4.378;2022-10-16T05:11:29;12.98;84.40
73688;SHT30;62257;48.376;-4.378;2022-10-16T05:13:54;12.97;84.33
73688;SHT30;62257;48.376;-4.378;2022-10-16T05:16:20;12.98;84.34
73688;SHT30;62257;48.376;-4.378;2022-10-16T05:18:45;13.01;84.22
73688;SHT30;62257;48.376;-4.378;2022-10-16T05:21:11;13.01;84.25
73688;SHT30;62257;48.376;-4.378;2022-10-16T05:23:36;13.00;84.22
73688;SHT30;62257;48.376;-4.378;2022-10-16T05:26:01;13.02;84.28
73688;SHT30;62257;48.376;-4.378;2022-10-16T05:28:28;13.00;84.21
73688;SHT30;62257;48.376;-4.378;2022-10-16T05:30:54;13.00;84.12
73688;SHT30;62257;48.376;-4.378;2022-10-16T05:33:20;13.00;83.95
73688;SHT30;62257;48.376;-4.378;2022-10-16T05:35:46;12.98;83.90
73688;SHT30;62257;48.376;-4.378;2022-10-16T05:38:12;13.00;83.81
73688;SHT30;62257;48.376;-4.378;2022-10-16T05:40:37;12.94;83.73
73688;SHT30;62257;48.376;-4.378;2022-10-16T05:43:03;12.94;83.63
73688;SHT30;62257;48.376;-4.378;2022-10-16T05:45:28;12.88;83.68
73688;SHT30;62257;48.376;-4.378;2022-10-16T05:47:54;12.87;83.53
73688;SHT30;62257;48.376;-4.378;2022-10-16T05:50:19;12.84;83.61
73688;SHT30;62257;48.376;-4.378;2022-10-16T05:52:44;12.85;83.54
73688;SHT30;62257;48.376;-4.378;2022-10-16T05:55:10;12.81;83.63
73688;SHT30;62257;48.376;-4.378;2022-10-16T05:57:35;12.80;83.60
73688;SHT30;62257;48.376;-4.378;2022-10-16T06:00:00;12.79;83.56
73688;SHT30;62257;48.376;-4.378;2022-10-16T06:02:26;12.74;83.64
73688;SHT30;62257;48.376;-4.378;2022-10-16T06:04:52;12.74;83.74
73688;SHT30;62257;48.376;-4.378;2022-10-16T06:07:21;12.70;83.71
73688;SHT30;62257;48.376;-4.378;2022-10-16T06:09:51;12.68;83.77
73688;SHT30;62257;48.376;-4.378;2022-10-16T06:12:17;12.67;83.87
73688;SHT30;62257;48.376;-4.378;2022-10-16T06:14:42;12.65;83.93
73688;SHT30;62257;48.376;-4.378;2022-10-16T06:17:08;12.63;83.91
73688;SHT30;62257;48.376;-4.378;2022-10-16T06:19:33;12.64;84.00
73688;SHT30;62257;48.376;-4.378;2022-10-16T06:21:58;12.64;84.02
73688;SHT30;62257;48.376;-4.378;2022-10-16T06:24:25;12.63;84.11
73688;SHT30;62257;48.376;-4.378;2022-10-16T06:26:50;12.64;84.14
73688;SHT30;62257;48.376;-4.378;2022-10-16T06:29:16;12.67;84.16
73688;SHT30;62257;48.376;-4.378;2022-10-16T06:31:41;12.76;84.11
73688;SHT30;62257;48.376;-4.378;2022-10-16T06:34:09;12.81;84.05
73688;SHT30;62257;48.376;-4.378;2022-10-16T06:36:36;12.85;83.92
73688;SHT30;62257;48.376;-4.378;2022-10-16T06:39:02;12.91;83.79
73688;SHT30;62257;48.376;-4.378;2022-10-16T06:41:28;12.94;83.84
73688;SHT30;62257;48.376;-4.378;2022-10-16T06:43:53;12.97;83.56
73688;SHT30;62257;48.376;-4.378;2022-10-16T06:46:21;13.01;83.48
73688;SHT30;62257;48.376;-4.378;2022-10-16T06:48:47;13.01;83.43
73688;SHT30;62257;48.376;-4.378;2022-10-16T06:51:18;13.02;83.28
73688;SHT30;62257;48.376;-4.378;2022-10-16T06:53:49;13.07;83.24
73688;SHT30;62257;48.376;-4.378;2022-10-16T06:56:23;13.08;83.10
73688;SHT30;62257;48.376;-4.378;2022-10-16T06:58:50;13.12;83.18
73688;SHT30;62257;48.376;-4.378;2022-10-16T07:01:17;13.12;83.09
73688;SHT30;62257;48.376;-4.378;2022-10-16T07:03:44;13.22;83.12
73688;SHT30;62257;48.376;-4.378;2022-10-16T07:06:12;13.22;82.94
73688;SHT30;62257;48.376;-4.378;2022-10-16T07:08:39;13.28;82.93
73688;SHT30;62257;48.376;-4.378;2022-10-16T07:11:10;13.29;82.80
73688;SHT30;62257;48.376;-4.378;2022-10-16T07:13:36;13.29;82.81
73688;SHT30;62257;48.376;-4.378;2022-10-16T07:16:11;13.35;82.83
73688;SHT30;62257;48.376;-4.378;2022-10-16T07:18:37;13.39;82.71
73688;SHT30;62257;48.376;-4.378;2022-10-16T07:21:10;13.40;82.56
73688;SHT30;62257;48.376;-4.378;2022-10-16T07:23:36;13.46;82.63
73688;SHT30;62257;48.376;-4.378;2022-10-16T07:26:03;13.49;82.44
73688;SHT30;62257;48.376;-4.378;2022-10-16T07:28:29;13.49;82.23
73688;SHT30;62257;48.376;-4.378;2022-10-16T07:30:54;13.53;82.49
73688;SHT30;62257;48.376;-4.378;2022-10-16T07:33:20;13.59;82.58
73688;SHT30;62257;48.376;-4.378;2022-10-16T07:35:50;13.63;82.65
73688;SHT30;62257;48.376;-4.378;2022-10-16T07:38:16;13.69;82.57
73688;SHT30;62257;48.376;-4.378;2022-10-16T07:40:42;13.74;82.47
73688;SHT30;62257;48.376;-4.378;2022-10-16T07:43:07;13.77;82.11
73688;SHT30;62257;48.376;-4.378;2022-10-16T07:45:32;13.83;82.23
73688;SHT30;62257;48.376;-4.378;2022-10-16T07:47:58;13.91;81.82
73688;SHT30;62257;48.376;-4.378;2022-10-16T07:50:23;13.95;82.18
73688;SHT30;62257;48.376;-4.378;2022-10-16T07:52:49;13.98;82.28
73688;SHT30;62257;48.376;-4.378;2022-10-16T07:55:14;14.03;82.29
73688;SHT30;62257;48.376;-4.378;2022-10-16T07:57:39;14.08;81.87
73688;SHT30;62257;48.376;-4.378;2022-10-16T08:00:05;14.18;82.18
73688;SHT30;62257;48.376;-4.378;2022-10-16T08:02:31;14.25;82.04
73688;SHT30;62257;48.376;-4.378;2022-10-16T08:04:57;14.29;81.47
73688;SHT30;62257;48.376;-4.378;2022-10-16T08:07:22;14.32;81.90
73688;SHT30;62257;48.376;-4.378;2022-10-16T08:09:50;14.39;81.50
73688;SHT30;62257;48.376;-4.378;2022-10-16T08:12:17;14.45;81.47
73688;SHT30;62257;48.376;-4.378;2022-10-16T08:14:42;14.53;81.37
73688;SHT30;62257;48.376;-4.378;2022-10-16T08:17:08;14.60;81.78
73688;SHT30;62257;48.376;-4.378;2022-10-16T08:19:33;14.72;81.47
73688;SHT30;62257;48.376;-4.378;2022-10-16T08:22:00;14.76;81.16
73688;SHT30;62257;48.376;-4.378;2022-10-16T08:24:26;14.79;80.88
73688;SHT30;62257;48.376;-4.378;2022-10-16T08:26:53;14.84;80.77
73688;SHT30;62257;48.376;-4.378;2022-10-16T08:29:19;14.93;80.75
73688;SHT30;62257;48.376;-4.378;2022-10-16T08:31:44;15.03;80.71
73688;SHT30;62257;48.376;-4.378;2022-10-16T08:34:09;15.10;80.01
73688;SHT30;62257;48.376;-4.378;2022-10-16T08:36:35;15.16;80.16
73688;SHT30;62257;48.376;-4.378;2022-10-16T08:39:00;15.20;79.42
73688;SHT30;62257;48.376;-4.378;2022-10-16T08:49:25;15.38;79.43
73688;SHT30;62257;48.376;-4.378;2022-10-16T08:51:51;15.38;79.45
73688;SHT30;62257;48.376;-4.378;2022-10-16T08:54:29;15.35;79.52
73688;SHT30;62257;48.376;-4.378;2022-10-16T08:56:56;15.38;79.69
73688;SHT30;62257;48.376;-4.378;2022-10-16T08:59:22;15.38;79.58
73688;SHT30;62257;48.376;-4.378;2022-10-16T09:01:50;15.42;79.67
73688;SHT30;62257;48.376;-4.378;2022-10-16T09:13:08;15.59;79.42
73688;SHT30;62257;48.376;-4.378;2022-10-16T09:16:19;15.61;79.56
73688;SHT30;62257;48.376;-4.378;2022-10-16T09:21:34;15.72;79.09
73688;SHT30;62257;48.376;-4.378;2022-10-16T09:26:35;15.90;79.02
73688;SHT30;62257;48.376;-4.378;2022-10-16T09:29:00;15.93;78.79
73688;SHT30;62257;48.376;-4.378;2022-10-16T09:31:27;16.01;78.10
73688;SHT30;62257;48.376;-4.378;2022-10-16T09:33:57;16.00;78.43
73688;SHT30;62257;48.376;-4.378;2022-10-16T09:36:25;15.99;78.21
73688;SHT30;62257;48.376;-4.378;2022-10-16T09:39:04;15.90;78.42
73688;SHT30;62257;48.376;-4.378;2022-10-16T09:41:30;15.93;78.44
73688;SHT30;62257;48.376;-4.378;2022-10-16T09:43:58;15.92;78.44
73688;SHT30;62257;48.376;-4.378;2022-10-16T09:48:58;15.94;78.51
73688;SHT30;62257;48.376;-4.378;2022-10-16T09:51:36;15.97;78.30
73688;SHT30;62257;48.376;-4.378;2022-10-16T09:56:35;16.01;78.05
73688;SHT30;62257;48.376;-4.378;2022-10-16T09:59:20;16.01;78.00
73688;SHT30;62257;48.376;-4.378;2022-10-16T10:01:48;16.06;78.11
73688;SHT30;62257;48.376;-4.378;2022-10-16T10:04:16;16.00;78.19
73688;SHT30;62257;48.376;-4.378;2022-10-16T10:06:47;16.03;78.01
73688;SHT30;62257;48.376;-4.378;2022-10-16T10:09:17;16.06;78.25
73688;SHT30;62257;48.376;-4.378;2022-10-16T10:11:48;16.07;78.10
73688;SHT30;62257;48.376;-4.378;2022-10-16T10:16:49;16.07;78.06
73688;SHT30;62257;48.376;-4.378;2022-10-16T10:19:21;16.11;78.30
73688;SHT30;62257;48.376;-4.378;2022-10-16T10:21:47;16.16;78.07
73688;SHT30;62257;48.376;-4.378;2022-10-16T10:24:15;16.14;78.09
73688;SHT30;62257;48.376;-4.378;2022-10-16T10:27:17;16.16;78.39
73688;SHT30;62257;48.376;-4.378;2022-10-16T10:40:43;16.25;78.62
73688;SHT30;62257;48.376;-4.378;2022-10-16T10:46:03;16.24;78.39
73688;SHT30;62257;48.376;-4.378;2022-10-16T10:48:56;16.20;78.83
73688;SHT30;62257;48.376;-4.378;2022-10-16T10:51:35;16.18;78.96
73688;SHT30;62257;48.376;-4.378;2022-10-16T11:00:30;16.44;78.82
73688;SHT30;62257;48.376;-4.378;2022-10-16T11:10:54;16.75;78.50
73688;SHT30;62257;48.376;-4.378;2022-10-16T11:25:18;16.82;78.42
73688;SHT30;62257;48.376;-4.378;2022-10-16T11:30:43;16.76;78.88
73688;SHT30;62257;48.376;-4.378;2022-10-16T11:35:39;16.79;79.21
73688;SHT30;62257;48.376;-4.378;2022-10-16T11:38:26;16.86;79.11
73688;SHT30;62257;48.376;-4.378;2022-10-16T11:40:54;16.89;79.30
73688;SHT30;62257;48.376;-4.378;2022-10-16T11:43:32;16.90;79.48
73688;SHT30;62257;48.376;-4.378;2022-10-16T11:46:08;16.92;79.84
73688;SHT30;62257;48.376;-4.378;2022-10-16T11:48:48;17.03;79.73
73688;SHT30;62257;48.376;-4.378;2022-10-16T11:51:36;17.07;79.62
73688;SHT30;62257;48.376;-4.378;2022-10-16T11:54:28;17.04;80.02
73688;SHT30;62257;48.376;-4.378;2022-10-16T11:57:02;17.03;79.98
73688;SHT30;62257;48.376;-4.378;2022-10-16T12:06:02;16.86;80.71
73688;SHT30;62257;48.376;-4.378;2022-10-16T12:08:33;16.83;80.78
73688;SHT30;62257;48.376;-4.378;2022-10-16T12:11:43;16.80;80.93
73688;SHT30;62257;48.376;-4.378;2022-10-16T12:14:17;16.77;81.09
73688;SHT30;62257;48.376;-4.378;2022-10-16T12:17:03;16.73;81.35
73688;SHT30;62257;48.376;-4.378;2022-10-16T12:19:32;16.71;81.54
73688;SHT30;62257;48.376;-4.378;2022-10-16T12:22:00;16.64;81.59
73688;SHT30;62257;48.376;-4.378;2022-10-16T12:24:35;16.62;82.18
73688;SHT30;62257;48.376;-4.378;2022-10-16T12:27:04;16.61;82.24
73688;SHT30;62257;48.376;-4.378;2022-10-16T12:29:44;16.61;82.45
73688;SHT30;62257;48.376;-4.378;2022-10-16T12:34:50;16.62;83.01
73688;SHT30;62257;48.376;-4.378;2022-10-16T12:37:22;16.65;82.92
73688;SHT30;62257;48.376;-4.378;2022-10-16T12:39:49;16.64;83.38
73688;SHT30;62257;48.376;-4.378;2022-10-16T12:42:22;16.59;82.37
73688;SHT30;62257;48.376;-4.378;2022-10-16T12:44:49;16.61;83.51
73688;SHT30;62257;48.376;-4.378;2022-10-16T12:47:36;16.59;83.53
73688;SHT30;62257;48.376;-4.378;2022-10-16T12:50:03;16.61;83.64
73688;SHT30;62257;48.376;-4.378;2022-10-16T12:52:37;16.61;83.66
73688;SHT30;62257;48.376;-4.378;2022-10-16T12:55:05;16.65;84.11
73688;SHT30;62257;48.376;-4.378;2022-10-16T13:00:23;16.71;84.25
73688;SHT30;62257;48.376;-4.378;2022-10-16T13:09:02;16.89;84.38
73688;SHT30;62257;48.376;-4.378;2022-10-16T13:11:57;16.95;84.40
73688;SHT30;62257;48.376;-4.378;2022-10-16T13:19:48;17.02;84.45
73688;SHT30;62257;48.376;-4.378;2022-10-16T13:22:45;17.03;84.79
73688;SHT30;62257;48.376;-4.378;2022-10-16T13:28:00;17.14;84.51
73688;SHT30;62257;48.376;-4.378;2022-10-16T13:30:28;17.26;84.39
73688;SHT30;62257;48.376;-4.378;2022-10-16T13:33:01;17.28;84.25
73688;SHT30;62257;48.376;-4.378;2022-10-16T13:35:30;17.30;84.17
73688;SHT30;62257;48.376;-4.378;2022-10-16T13:38:12;17.28;84.30
73688;SHT30;62257;48.376;-4.378;2022-10-16T13:40:58;17.31;84.18
73688;SHT30;62257;48.376;-4.378;2022-10-16T13:43:50;17.35;83.94
73688;SHT30;62257;48.376;-4.378;2022-10-16T13:46:19;17.38;84.13
73688;SHT30;62257;48.376;-4.378;2022-10-16T13:48:56;17.35;84.04
73688;SHT30;62257;48.376;-4.378;2022-10-16T13:51:22;17.34;84.01
73688;SHT30;62257;48.376;-4.378;2022-10-16T13:53:47;17.34;84.24
73688;SHT30;62257;48.376;-4.378;2022-10-16T13:56:18;17.31;84.18
73688;SHT30;62257;48.376;-4.378;2022-10-16T13:58:45;17.30;84.05
73688;SHT30;62257;48.376;-4.378;2022-10-16T14:01:29;17.31;84.06
73688;SHT30;62257;48.376;-4.378;2022-10-16T14:04:04;17.30;84.03
73688;SHT30;62257;48.376;-4.378;2022-10-16T14:06:31;17.27;84.22
73688;SHT30;62257;48.376;-4.378;2022-10-16T14:09:20;17.24;84.36
73688;SHT30;62257;48.376;-4.378;2022-10-16T14:11:50;17.31;84.19
73688;SHT30;62257;48.376;-4.378;2022-10-16T14:14:17;17.31;84.47
73688;SHT30;62257;48.376;-4.378;2022-10-16T14:16:43;17.35;84.15
73688;SHT30;62257;48.376;-4.378;2022-10-16T14:19:21;17.34;84.13
73688;SHT30;62257;48.376;-4.378;2022-10-16T14:21:49;17.38;84.29
73688;SHT30;62257;48.376;-4.378;2022-10-16T14:26:56;17.35;84.21
73688;SHT30;62257;48.376;-4.378;2022-10-16T14:29:23;17.38;84.17
73688;SHT30;62257;48.376;-4.378;2022-10-16T14:32:04;17.41;84.34
73688;SHT30;62257;48.376;-4.378;2022-10-16T14:34:35;17.47;84.20
73688;SHT30;62257;48.376;-4.378;2022-10-16T14:37:13;17.48;83.91
73688;SHT30;62257;48.376;-4.378;2022-10-16T14:39:41;17.51;83.80
73688;SHT30;62257;48.376;-4.378;2022-10-16T14:42:15;17.45;83.80
73688;SHT30;62257;48.376;-4.378;2022-10-16T14:44:42;17.47;83.75
73688;SHT30;62257;48.376;-4.378;2022-10-16T14:47:13;17.44;83.87
73688;SHT30;62257;48.376;-4.378;2022-10-16T14:49:41;17.44;84.04
73688;SHT30;62257;48.376;-4.378;2022-10-16T14:52:12;17.42;83.94
73688;SHT30;62257;48.376;-4.378;2022-10-16T14:54:38;17.41;84.06
73688;SHT30;62257;48.376;-4.378;2022-10-16T14:57:03;17.45;84.01
73688;SHT30;62257;48.376;-4.378;2022-10-16T14:59:37;17.44;83.86
73688;SHT30;62257;48.376;-4.378;2022-10-16T15:04:48;17.44;83.84
73688;SHT30;62257;48.376;-4.378;2022-10-16T15:07:14;17.45;84.22
73688;SHT30;62257;48.376;-4.378;2022-10-16T15:09:39;17.42;84.19
73688;SHT30;62257;48.376;-4.378;2022-10-16T15:12:05;17.42;84.12
73688;SHT30;62257;48.376;-4.378;2022-10-16T15:14:31;17.41;84.35
73688;SHT30;62257;48.376;-4.378;2022-10-16T15:16:56;17.40;84.26
73688;SHT30;62257;48.376;-4.378;2022-10-16T15:19:22;17.41;84.44
73688;SHT30;62257;48.376;-4.378;2022-10-16T15:21:47;17.41;84.31
73688;SHT30;62257;48.376;-4.378;2022-10-16T15:24:13;17.40;84.36
73688;SHT30;62257;48.376;-4.378;2022-10-16T15:26:39;17.42;84.13
73688;SHT30;62257;48.376;-4.378;2022-10-16T15:29:05;17.42;84.30
73688;SHT30;62257;48.376;-4.378;2022-10-16T15:31:31;17.41;84.62
73688;SHT30;62257;48.376;-4.378;2022-10-16T15:33:57;17.42;84.46
73688;SHT30;62257;48.376;-4.378;2022-10-16T15:36:34;17.42;84.58
73688;SHT30;62257;48.376;-4.378;2022-10-16T15:39:05;17.41;84.75
73688;SHT30;62257;48.376;-4.378;2022-10-16T15:41:31;17.41;84.73
73688;SHT30;62257;48.376;-4.378;2022-10-16T15:43:57;17.40;84.44
73688;SHT30;62257;48.376;-4.378;2022-10-16T15:46:23;17.41;84.58
73688;SHT30;62257;48.376;-4.378;2022-10-16T15:48:50;17.44;84.84
73688;SHT30;62257;48.376;-4.378;2022-10-16T15:51:17;17.41;84.73
73688;SHT30;62257;48.376;-4.378;2022-10-16T15:53:43;17.44;84.79
73688;SHT30;62257;48.376;-4.378;2022-10-16T15:56:11;17.41;84.93
73688;SHT30;62257;48.376;-4.378;2022-10-16T15:58:37;17.40;85.04
73688;SHT30;62257;48.376;-4.378;2022-10-16T16:01:03;17.34;85.39
73688;SHT30;62257;48.376;-4.378;2022-10-16T16:03:30;17.34;85.45
73688;SHT30;62257;48.376;-4.378;2022-10-16T16:05:56;17.31;85.51
73688;SHT30;62257;48.376;-4.378;2022-10-16T16:08:22;17.31;85.28
73688;SHT30;62257;48.376;-4.378;2022-10-16T16:11:01;17.34;85.12
73688;SHT30;62257;48.376;-4.378;2022-10-16T16:13:27;17.33;85.55
73688;SHT30;62257;48.376;-4.378;2022-10-16T16:15:53;17.30;85.76
73688;SHT30;62257;48.376;-4.378;2022-10-16T16:18:19;17.31;85.53
73688;SHT30;62257;48.376;-4.378;2022-10-16T16:20:44;17.31;85.92
73688;SHT30;62257;48.376;-4.378;2022-10-16T16:23:10;17.31;86.07
73688;SHT30;62257;48.376;-4.378;2022-10-16T16:25:35;17.34;85.43
73688;SHT30;62257;48.376;-4.378;2022-10-16T16:28:01;17.31;85.72
73688;SHT30;62257;48.376;-4.378;2022-10-16T16:30:26;17.31;85.79
73688;SHT30;62257;48.376;-4.378;2022-10-16T16:32:52;17.28;85.75
73688;SHT30;62257;48.376;-4.378;2022-10-16T16:35:17;17.31;85.84
73688;SHT30;62257;48.376;-4.378;2022-10-16T16:37:42;17.28;85.91
73688;SHT30;62257;48.376;-4.378;2022-10-16T16:40:08;17.28;85.73
73688;SHT30;62257;48.376;-4.378;2022-10-16T16:42:33;17.31;85.60
73688;SHT30;62257;48.376;-4.378;2022-10-16T16:44:59;17.35;85.77
73688;SHT30;62257;48.376;-4.378;2022-10-16T16:47:24;17.31;85.60
73688;SHT30;62257;48.376;-4.378;2022-10-16T16:49:50;17.30;85.62
73688;SHT30;62257;48.376;-4.378;2022-10-16T16:52:17;17.31;85.76
73688;SHT30;62257;48.376;-4.378;2022-10-16T16:54:42;17.31;85.77
73688;SHT30;62257;48.376;-4.378;2022-10-16T16:57:09;17.31;85.91
73688;SHT30;62257;48.376;-4.378;2022-10-16T16:59:35;17.31;85.91
73688;SHT30;62257;48.376;-4.378;2022-10-16T17:02:00;17.30;86.09
73688;SHT30;62257;48.376;-4.378;2022-10-16T17:04:26;17.28;85.67
73688;SHT30;62257;48.376;-4.378;2022-10-16T17:06:55;17.28;85.89
73688;SHT30;62257;48.376;-4.378;2022-10-16T17:09:21;17.28;86.16
73688;SHT30;62257;48.376;-4.378;2022-10-16T17:11:46;17.23;86.01
73688;SHT30;62257;48.376;-4.378;2022-10-16T17:14:14;17.26;86.30
73688;SHT30;62257;48.376;-4.378;2022-10-16T17:16:40;17.23;86.46
73688;SHT30;62257;48.376;-4.378;2022-10-16T17:19:12;17.23;86.18